sensor_id;sensor_type;location;lat;lon;timestamp;temperature;humidity
6443;DHT22;3254;47.372;8.512;2022-09-27T00:00:28;9.40;99.90
6443;DHT22;3254;47.372;8.512;2022-09-27T00:02:55;9.50;99.90
6443;DHT22;3254;47.372;8.512;2022-09-27T00:05:20;9.40;99.90
6443;DHT22;3254;47.372;8.512;2022-09-27T00:07:47;9.50;99.90
6443;DHT22;3254;47.372;8.512;2022-09-27T00:10:13;9.60;99.90
6443;DHT22;3254;47.372;8.512;2022-09-27T00:12:38;9.60;99.90
6443;DHT22;3254;47.372;8.512;2022-09-27T00:15:06;9.60;99.90
6443;DHT22;3254;47.372;8.512;2022-09-27T00:17:32;9.60;99.90
6443;DHT22;3254;47.372;8.512;2022-09-27T00:19:59;9.60;99.90
6443;DHT22;3254;47.372;8.512;2022-09-27T00:22:26;9.70;99.90
6443;DHT22;3254;47.372;8.512;2022-09-27T00:24:52;9.80;99.90
6443;DHT22;3254;47.372;8.512;2022-09-27T00:27:19;9.90;99.90
6443;DHT22;3254;47.372;8.512;2022-09-27T00:29:46;10.00;99.70
6443;DHT22;3254;47.372;8.512;2022-09-27T00:32:13;10.20;94.60
6443;DHT22;3254;47.372;8.512;2022-09-27T00:34:39;10.20;92.40
6443;DHT22;3254;47.372;8.512;2022-09-27T00:37:07;10.20;92.50
6443;DHT22;3254;47.372;8.512;2022-09-27T00:39:36;10.40;82.30
6443;DHT22;3254;47.372;8.512;2022-09-27T00:42:03;10.30;82.50
6443;DHT22;3254;47.372;8.512;2022-09-27T00:50:18;10.20;91.80
6443;DHT22;3254;47.372;8.512;2022-09-27T00:55:31;10.40;81.20
6443;DHT22;3254;47.372;8.512;2022-09-27T00:57:59;10.40;79.50
6443;DHT22;3254;47.372;8.512;2022-09-27T01:00:25;10.40;77.70
6443;DHT22;3254;47.372;8.512;2022-09-27T01:02:53;10.60;67.90
6443;DHT22;3254;47.372;8.512;2022-09-27T01:05:21;10.50;66.40
6443;DHT22;3254;47.372;8.512;2022-09-27T01:07:49;10.60;65.90
6443;DHT22;3254;47.372;8.512;2022-09-27T01:10:15;10.60;59.70
6443;DHT22;3254;47.372;8.512;2022-09-27T01:12:53;10.60;62.70
6443;DHT22;3254;47.372;8.512;2022-09-27T01:15:42;10.70;56.40
6443;DHT22;3254;47.372;8.512;2022-09-27T01:18:31;10.80;56.00
6443;DHT22;3254;47.372;8.512;2022-09-27T01:21:12;10.80;54.70
6443;DHT22;3254;47.372;8.512;2022-09-27T01:29:12;10.80;53.40
6443;DHT22;3254;47.372;8.512;2022-09-27T01:31:47;10.80;50.40
6443;DHT22;3254;47.372;8.512;2022-09-27T01:37:11;10.70;52.90
6443;DHT22;3254;47.372;8.512;2022-09-27T01:42:48;10.60;56.20
6443;DHT22;3254;47.372;8.512;2022-09-27T01:48:06;10.70;48.60
6443;DHT22;3254;47.372;8.512;2022-09-27T01:50:54;10.80;48.00
6443;DHT22;3254;47.372;8.512;2022-09-27T01:53:38;10.80;49.40
6443;DHT22;3254;47.372;8.512;2022-09-27T01:56:09;10.70;53.50
6443;DHT22;3254;47.372;8.512;2022-09-27T01:59:07;10.70;55.20
6443;DHT22;3254;47.372;8.512;2022-09-27T02:01:32;10.80;50.50
6443;DHT22;3254;47.372;8.512;2022-09-27T02:04:01;10.60;57.30
6443;DHT22;3254;47.372;8.512;2022-09-27T02:06:32;10.40;68.00
6443;DHT22;3254;47.372;8.512;2022-09-27T02:09:26;9.90;99.90
6443;DHT22;3254;47.372;8.512;2022-09-27T02:11:59;9.30;99.90
6443;DHT22;3254;47.372;8.512;2022-09-27T02:14:49;9.10;99.90
6443;DHT22;3254;47.372;8.512;2022-09-27T02:21:13;9.00;99.90
6443;DHT22;3254;47.372;8.512;2022-09-27T02:26:15;9.00;99.90
6443;DHT22;3254;47.372;8.512;2022-09-27T02:28:43;8.90;99.90
6443;DHT22;3254;47.372;8.512;2022-09-27T02:31:10;8.90;99.90
6443;DHT22;3254;47.372;8.512;2022-09-27T02:36:11;8.90;99.90
6443;DHT22;3254;47.372;8.512;2022-09-27T02:38:37;8.90;99.90
6443;DHT22;3254;47.372;8.512;2022-09-27T02:41:02;8.90;99.90
6443;DHT22;3254;47.372;8.512;2022-09-27T02:43:31;8.90;99.90
6443;DHT22;3254;47.372;8.512;2022-09-27T02:48:44;8.80;99.90
6443;DHT22;3254;47.372;8.512;2022-09-27T02:54:15;8.80;99.90
6443;DHT22;3254;47.372;8.512;2022-09-27T03:02:31;8.80;99.90
6443;DHT22;3254;47.372;8.512;2022-09-27T03:05:04;8.80;99.90
6443;DHT22;3254;47.372;8.512;2022-09-27T03:07:33;8.90;99.90
6443;DHT22;3254;47.372;8.512;2022-09-27T03:09:58;8.90;99.90
6443;DHT22;3254;47.372;8.512;2022-09-27T03:12:24;8.90;99.90
6443;DHT22;3254;47.372;8.512;2022-09-27T03:14:55;8.90;99.90
6443;DHT22;3254;47.372;8.512;2022-09-27T03:17:22;8.90;99.90
6443;DHT22;3254;47.372;8.512;2022-09-27T03:19:49;8.90;99.90
6443;DHT22;3254;47.372;8.512;2022-09-27T03:22:14;8.90;99.90
6443;DHT22;3254;47.372;8.512;2022-09-27T03:24:40;9.00;99.90
6443;DHT22;3254;47.372;8.512;2022-09-27T03:27:09;9.00;99.90
6443;DHT22;3254;47.372;8.512;2022-09-27T03:29:36;9.00;99.90
6443;DHT22;3254;47.372;8.512;2022-09-27T03:32:03;9.10;99.90
6443;DHT22;3254;47.372;8.512;2022-09-27T03:34:31;9.10;99.90
6443;DHT22;3254;47.372;8.512;2022-09-27T03:36:57;9.10;99.90
6443;DHT22;3254;47.372;8.512;2022-09-27T03:39:23;9.10;99.90
6443;DHT22;3254;47.372;8.512;2022-09-27T03:41:49;9.10;99.90
6443;DHT22;3254;47.372;8.512;2022-09-27T03:44:15;9.10;99.90
6443;DHT22;3254;47.372;8.512;2022-09-27T03:46:42;9.10;99.90
6443;DHT22;3254;47.372;8.512;2022-09-27T03:49:09;9.00;99.90
6443;DHT22;3254;47.372;8.512;2022-09-27T03:51:37;9.00;99.90
6443;DHT22;3254;47.372;8.512;2022-09-27T03:54:03;9.00;99.90
6443;DHT22;3254;47.372;8.512;2022-09-27T03:56:29;8.80;99.90
6443;DHT22;3254;47.372;8.512;2022-09-27T03:58:54;8.80;99.90
6443;DHT22;3254;47.372;8.512;2022-09-27T04:01:23;8.80;99.90
6443;DHT22;3254;47.372;8.512;2022-09-27T04:03:50;8.70;99.90
6443;DHT22;3254;47.372;8.512;2022-09-27T04:06:16;8.70;99.90
6443;DHT22;3254;47.372;8.512;2022-09-27T04:08:43;8.70;99.90
6443;DHT22;3254;47.372;8.512;2022-09-27T04:11:10;8.70;99.90
6443;DHT22;3254;47.372;8.512;2022-09-27T04:13:37;8.60;99.90
6443;DHT22;3254;47.372;8.512;2022-09-27T04:16:02;8.60;99.90
6443;DHT22;3254;47.372;8.512;2022-09-27T04:18:28;8.60;99.90
6443;DHT22;3254;47.372;8.512;2022-09-27T04:20:54;8.60;99.90
6443;DHT22;3254;47.372;8.512;2022-09-27T04:23:20;8.60;99.90
6443;DHT22;3254;47.372;8.512;2022-09-27T04:25:46;8.50;99.90
6443;DHT22;3254;47.372;8.512;2022-09-27T04:28:12;8.50;99.90
6443;DHT22;3254;47.372;8.512;2022-09-27T04:30:40;8.40;99.90
6443;DHT22;3254;47.372;8.512;2022-09-27T04:33:06;8.30;99.90
6443;DHT22;3254;47.372;8.512;2022-09-27T04:35:32;8.30;99.90
6443;DHT22;3254;47.372;8.512;2022-09-27T04:38:17;8.30;99.90
6443;DHT22;3254;47.372;8.512;2022-09-27T04:40:46;8.30;99.90
6443;DHT22;3254;47.372;8.512;2022-09-27T04:43:13;8.30;99.90
6443;DHT22;3254;47.372;8.512;2022-09-27T04:45:39;8.30;99.90
6443;DHT22;3254;47.372;8.512;2022-09-27T04:48:04;8.30;99.90
6443;DHT22;3254;47.372;8.512;2022-09-27T04:50:31;8.30;99.90
6443;DHT22;3254;47.372;8.512;2022-09-27T04:52:57;8.20;99.90
6443;DHT22;3254;47.372;8.512;2022-09-27T04:55:23;8.20;99.90
6443;DHT22;3254;47.372;8.512;2022-09-27T04:57:50;8.20;99.90
6443;DHT22;3254;47.372;8.512;2022-09-27T05:00:16;8.30;99.90
6443;DHT22;3254;47.372;8.512;2022-09-27T05:02:43;8.30;99.90
6443;DHT22;3254;47.372;8.512;2022-09-27T05:05:09;8.30;99.90
6443;DHT22;3254;47.372;8.512;2022-09-27T05:07:36;8.30;99.90
6443;DHT22;3254;47.372;8.512;2022-09-27T05:10:03;8.40;99.90
6443;DHT22;3254;47.372;8.512;2022-09-27T05:12:29;8.30;99.90
6443;DHT22;3254;47.372;8.512;2022-09-27T05:14:54;8.30;99.90
6443;DHT22;3254;47.372;8.512;2022-09-27T05:17:21;8.30;99.90
6443;DHT22;3254;47.372;8.512;2022-09-27T05:19:48;8.30;99.90
6443;DHT22;3254;47.372;8.512;2022-09-27T05:22:15;8.30;99.90
6443;DHT22;3254;47.372;8.512;2022-09-27T05:24:41;8.30;99.90
6443;DHT22;3254;47.372;8.512;2022-09-27T05:27:15;8.30;99.90
6443;DHT22;3254;47.372;8.512;2022-09-27T05:29:43;8.30;99.90
6443;DHT22;3254;47.372;8.512;2022-09-27T05:32:10;8.20;99.90
6443;DHT22;3254;47.372;8.512;2022-09-27T05:34:37;8.20;99.90
6443;DHT22;3254;47.372;8.512;2022-09-27T05:37:03;8.10;99.90
6443;DHT22;3254;47.372;8.512;2022-09-27T05:39:30;8.10;99.90
6443;DHT22;3254;47.372;8.512;2022-09-27T05:41:55;8.10;99.90
6443;DHT22;3254;47.372;8.512;2022-09-27T05:44:22;8.00;99.90
6443;DHT22;3254;47.372;8.512;2022-09-27T05:46:48;7.90;99.90
6443;DHT22;3254;47.372;8.512;2022-09-27T05:49:13;7.90;99.90
6443;DHT22;3254;47.372;8.512;2022-09-27T05:51:39;7.80;99.90
6443;DHT22;3254;47.372;8.512;2022-09-27T05:54:05;7.90;99.90
6443;DHT22;3254;47.372;8.512;2022-09-27T05:56:31;8.10;99.90
6443;DHT22;3254;47.372;8.512;2022-09-27T05:58:56;8.20;99.90
6443;DHT22;3254;47.372;8.512;2022-09-27T06:01:23;8.30;99.90
6443;DHT22;3254;47.372;8.512;2022-09-27T06:03:51;8.40;99.90
6443;DHT22;3254;47.372;8.512;2022-09-27T06:06:18;8.50;99.90
6443;DHT22;3254;47.372;8.512;2022-09-27T06:08:43;8.50;99.90
6443;DHT22;3254;47.372;8.512;2022-09-27T06:11:11;8.50;99.90
6443;DHT22;3254;47.372;8.512;2022-09-27T06:13:38;8.50;99.90
6443;DHT22;3254;47.372;8.512;2022-09-27T06:16:04;8.60;99.90
6443;DHT22;3254;47.372;8.512;2022-09-27T06:18:31;8.60;99.90
6443;DHT22;3254;47.372;8.512;2022-09-27T06:21:01;8.60;99.90
6443;DHT22;3254;47.372;8.512;2022-09-27T06:23:28;8.60;99.90
6443;DHT22;3254;47.372;8.512;2022-09-27T06:26:00;8.60;99.90
6443;DHT22;3254;47.372;8.512;2022-09-27T06:28:27;8.60;99.90
6443;DHT22;3254;47.372;8.512;2022-09-27T06:30:53;8.50;99.90
6443;DHT22;3254;47.372;8.512;2022-09-27T06:33:19;8.50;99.90
6443;DHT22;3254;47.372;8.512;2022-09-27T06:35:46;8.50;99.90
6443;DHT22;3254;47.372;8.512;2022-09-27T06:38:15;8.40;99.90
6443;DHT22;3254;47.372;8.512;2022-09-27T06:40:45;8.40;99.90
6443;DHT22;3254;47.372;8.512;2022-09-27T06:43:17;8.40;99.90
6443;DHT22;3254;47.372;8.512;2022-09-27T06:45:44;8.40;99.90
6443;DHT22;3254;47.372;8.512;2022-09-27T06:48:14;8.40;99.90
6443;DHT22;3254;47.372;8.512;2022-09-27T06:50:42;8.40;99.90
6443;DHT22;3254;47.372;8.512;2022-09-27T06:53:12;8.10;99.90
6443;DHT22;3254;47.372;8.512;2022-09-27T06:55:39;7.80;99.90
6443;DHT22;3254;47.372;8.512;2022-09-27T06:58:06;7.80;99.90
6443;DHT22;3254;47.372;8.512;2022-09-27T07:00:52;7.90;99.90
6443;DHT22;3254;47.372;8.512;2022-09-27T07:03:19;7.90;99.90
6443;DHT22;3254;47.372;8.512;2022-09-27T07:05:55;7.80;99.90
6443;DHT22;3254;47.372;8.512;2022-09-27T07:08:21;7.90;99.90
6443;DHT22;3254;47.372;8.512;2022-09-27T07:10:50;7.90;99.90
6443;DHT22;3254;47.372;8.512;2022-09-27T07:13:20;7.90;99.90
6443;DHT22;3254;47.372;8.512;2022-09-27T07:15:46;8.00;99.90
6443;DHT22;3254;47.372;8.512;2022-09-27T07:18:11;8.10;99.90
6443;DHT22;3254;47.372;8.512;2022-09-27T07:20:37;8.20;99.90
6443;DHT22;3254;47.372;8.512;2022-09-27T07:23:04;8.20;99.90
6443;DHT22;3254;47.372;8.512;2022-09-27T07:25:32;8.40;99.90
6443;DHT22;3254;47.372;8.512;2022-09-27T07:28:02;8.50;98.90
6443;DHT22;3254;47.372;8.512;2022-09-27T07:30:29;8.60;92.00
6443;DHT22;3254;47.372;8.512;2022-09-27T07:32:59;8.80;95.90
6443;DHT22;3254;47.372;8.512;2022-09-27T07:35:25;9.10;86.00
6443;DHT22;3254;47.372;8.512;2022-09-27T07:37:51;9.20;87.40
6443;DHT22;3254;47.372;8.512;2022-09-27T07:40:21;9.60;69.50
6443;DHT22;3254;47.372;8.512;2022-09-27T07:42:52;9.80;64.70
6443;DHT22;3254;47.372;8.512;2022-09-27T07:45:18;10.10;39.70
6443;DHT22;3254;47.372;8.512;2022-09-27T07:47:44;10.00;33.10
6443;DHT22;3254;47.372;8.512;2022-09-27T07:50:10;9.80;37.10
6443;DHT22;3254;47.372;8.512;2022-09-27T07:52:44;9.90;34.30
6443;DHT22;3254;47.372;8.512;2022-09-27T07:55:12;9.90;25.70
6443;DHT22;3254;47.372;8.512;2022-09-27T07:57:38;10.00;26.30
6443;DHT22;3254;47.372;8.512;2022-09-27T08:00:08;10.10;24.90
6443;DHT22;3254;47.372;8.512;2022-09-27T08:02:35;10.20;21.90
6443;DHT22;3254;47.372;8.512;2022-09-27T08:05:01;10.30;18.10
6443;DHT22;3254;47.372;8.512;2022-09-27T08:07:28;10.30;22.60
6443;DHT22;3254;47.372;8.512;2022-09-27T08:09:54;10.70;17.20
6443;DHT22;3254;47.372;8.512;2022-09-27T08:12:21;11.30;12.30
6443;DHT22;3254;47.372;8.512;2022-09-27T08:14:50;11.80;8.30
6443;DHT22;3254;47.372;8.512;2022-09-27T08:17:16;12.30;1.00
6443;DHT22;3254;47.372;8.512;2022-09-27T08:19:42;12.80;1.00
6443;DHT22;3254;47.372;8.512;2022-09-27T08:22:11;12.70;1.00
6443;DHT22;3254;47.372;8.512;2022-09-27T08:24:40;12.40;1.00
6443;DHT22;3254;47.372;8.512;2022-09-27T08:27:08;12.10;1.00
6443;DHT22;3254;47.372;8.512;2022-09-27T08:29:34;11.70;1.00
6443;DHT22;3254;47.372;8.512;2022-09-27T08:32:00;11.40;1.00
6443;DHT22;3254;47.372;8.512;2022-09-27T08:34:26;11.40;1.00
6443;DHT22;3254;47.372;8.512;2022-09-27T08:36:53;11.50;1.00
6443;DHT22;3254;47.372;8.512;2022-09-27T08:39:20;11.40;1.00
6443;DHT22;3254;47.372;8.512;2022-09-27T08:41:49;11.40;1.00
6443;DHT22;3254;47.372;8.512;2022-09-27T08:47:17;11.10;1.00
6443;DHT22;3254;47.372;8.512;2022-09-27T08:49:56;11.10;1.00
6443;DHT22;3254;47.372;8.512;2022-09-27T08:52:32;11.50;1.00
6443;DHT22;3254;47.372;8.512;2022-09-27T08:55:03;12.10;1.00
6443;DHT22;3254;47.372;8.512;2022-09-27T08:57:30;12.90;1.00
6443;DHT22;3254;47.372;8.512;2022-09-27T09:00:11;13.30;1.00
6443;DHT22;3254;47.372;8.512;2022-09-27T09:02:37;12.90;1.00
6443;DHT22;3254;47.372;8.512;2022-09-27T09:05:13;12.90;1.00
6443;DHT22;3254;47.372;8.512;2022-09-27T09:08:18;12.60;1.00
6443;DHT22;3254;47.372;8.512;2022-09-27T09:23:07;12.80;1.00
6443;DHT22;3254;47.372;8.512;2022-09-27T09:28:43;13.90;1.00
6443;DHT22;3254;47.372;8.512;2022-09-27T09:37:00;15.50;1.00
6443;DHT22;3254;47.372;8.512;2022-09-27T09:42:41;14.30;1.00
6443;DHT22;3254;47.372;8.512;2022-09-27T09:45:32;14.00;1.00
6443;DHT22;3254;47.372;8.512;2022-09-27T09:48:28;13.80;1.00
6443;DHT22;3254;47.372;8.512;2022-09-27T09:50:59;13.80;1.00
6443;DHT22;3254;47.372;8.512;2022-09-27T09:53:48;14.20;1.00
6443;DHT22;3254;47.372;8.512;2022-09-27T09:56:23;14.10;1.00
6443;DHT22;3254;47.372;8.512;2022-09-27T09:59:27;13.90;1.00
6443;DHT22;3254;47.372;8.512;2022-09-27T10:01:46;14.10;1.00
6443;DHT22;3254;47.372;8.512;2022-09-27T10:04:24;13.90;1.00
6443;DHT22;3254;47.372;8.512;2022-09-27T10:06:52;13.90;1.00
6443;DHT22;3254;47.372;8.512;2022-09-27T10:09:23;14.00;1.00
6443;DHT22;3254;47.372;8.512;2022-09-27T10:11:52;14.00;1.00
6443;DHT22;3254;47.372;8.512;2022-09-27T10:14:19;13.90;1.00
6443;DHT22;3254;47.372;8.512;2022-09-27T10:16:57;14.00;1.00
6443;DHT22;3254;47.372;8.512;2022-09-27T10:19:30;14.00;1.00
6443;DHT22;3254;47.372;8.512;2022-09-27T10:22:04;14.00;1.00
6443;DHT22;3254;47.372;8.512;2022-09-27T10:27:21;13.10;1.00
6443;DHT22;3254;47.372;8.512;2022-09-27T10:29:55;13.10;1.00
6443;DHT22;3254;47.372;8.512;2022-09-27T10:32:25;13.20;1.00
6443;DHT22;3254;47.372;8.512;2022-09-27T10:34:52;13.30;1.00
6443;DHT22;3254;47.372;8.512;2022-09-27T10:37:21;13.10;1.00
6443;DHT22;3254;47.372;8.512;2022-09-27T10:39:49;12.90;1.00
6443;DHT22;3254;47.372;8.512;2022-09-27T10:44:45;8.70;99.90
6443;DHT22;3254;47.372;8.512;2022-09-27T10:47:15;8.30;99.90
6443;DHT22;3254;47.372;8.512;2022-09-27T10:49:47;8.20;99.90
6443;DHT22;3254;47.372;8.512;2022-09-27T10:52:23;8.20;99.90
6443;DHT22;3254;47.372;8.512;2022-09-27T10:54:57;8.40;99.90
6443;DHT22;3254;47.372;8.512;2022-09-27T10:57:27;8.40;99.90
6443;DHT22;3254;47.372;8.512;2022-09-27T11:00:29;8.60;99.90
6443;DHT22;3254;47.372;8.512;2022-09-27T11:03:07;8.80;99.90
6443;DHT22;3254;47.372;8.512;2022-09-27T11:05:38;8.90;99.90
6443;DHT22;3254;47.372;8.512;2022-09-27T11:08:21;9.10;99.90
6443;DHT22;3254;47.372;8.512;2022-09-27T11:11:19;9.20;99.90
6443;DHT22;3254;47.372;8.512;2022-09-27T11:14:17;9.40;99.90
6443;DHT22;3254;47.372;8.512;2022-09-27T11:17:23;9.40;99.90
6443;DHT22;3254;47.372;8.512;2022-09-27T11:29:00;10.40;99.90
6443;DHT22;3254;47.372;8.512;2022-09-27T11:32:12;10.40;99.90
6443;DHT22;3254;47.372;8.512;2022-09-27T11:37:52;11.00;99.90
6443;DHT22;3254;47.372;8.512;2022-09-27T11:46:00;11.50;76.30
6443;DHT22;3254;47.372;8.512;2022-09-27T11:48:48;11.80;73.30
6443;DHT22;3254;47.372;8.512;2022-09-27T12:08:07;12.50;9.30
6443;DHT22;3254;47.372;8.512;2022-09-27T12:10:40;12.20;8.60
6443;DHT22;3254;47.372;8.512;2022-09-27T12:13:10;12.20;3.30
6443;DHT22;3254;47.372;8.512;2022-09-27T12:15:41;12.20;2.40
6443;DHT22;3254;47.372;8.512;2022-09-27T12:18:30;12.20;2.70
6443;DHT22;3254;47.372;8.512;2022-09-27T12:21:00;12.50;1.00
6443;DHT22;3254;47.372;8.512;2022-09-27T12:23:54;13.10;1.00
6443;DHT22;3254;47.372;8.512;2022-09-27T12:26:41;13.30;1.00
6443;DHT22;3254;47.372;8.512;2022-09-27T12:29:20;13.20;1.00
6443;DHT22;3254;47.372;8.512;2022-09-27T12:32:10;13.20;1.00
6443;DHT22;3254;47.372;8.512;2022-09-27T12:35:08;13.10;1.00
6443;DHT22;3254;47.372;8.512;2022-09-27T12:38:29;13.00;1.00
6443;DHT22;3254;47.372;8.512;2022-09-27T12:40:31;13.20;1.00
6443;DHT22;3254;47.372;8.512;2022-09-27T12:43:05;13.20;1.00
6443;DHT22;3254;47.372;8.512;2022-09-27T12:46:21;13.20;1.00
6443;DHT22;3254;47.372;8.512;2022-09-27T12:48:46;13.20;1.00
6443;DHT22;3254;47.372;8.512;2022-09-27T12:51:21;13.40;1.00
6443;DHT22;3254;47.372;8.512;2022-09-27T13:13:30;13.30;1.00
6443;DHT22;3254;47.372;8.512;2022-09-27T13:15:58;13.10;1.00
6443;DHT22;3254;47.372;8.512;2022-09-27T13:18:28;12.80;1.00
6443;DHT22;3254;47.372;8.512;2022-09-27T13:21:08;12.70;1.00
6443;DHT22;3254;47.372;8.512;2022-09-27T13:31:13;13.10;1.00
6443;DHT22;3254;47.372;8.512;2022-09-27T13:33:51;12.90;1.00
6443;DHT22;3254;47.372;8.512;2022-09-27T13:36:25;12.50;1.00
6443;DHT22;3254;47.372;8.512;2022-09-27T13:49:51;12.70;1.00
6443;DHT22;3254;47.372;8.512;2022-09-27T13:52:34;12.80;1.00
6443;DHT22;3254;47.372;8.512;2022-09-27T13:55:05;13.00;1.00
6443;DHT22;3254;47.372;8.512;2022-09-27T14:18:10;12.10;1.00
6443;DHT22;3254;47.372;8.512;2022-09-27T14:29:43;11.80;1.00
6443;DHT22;3254;47.372;8.512;2022-09-27T14:32:22;11.60;1.00
6443;DHT22;3254;47.372;8.512;2022-09-27T14:35:13;11.20;1.00
6443;DHT22;3254;47.372;8.512;2022-09-27T14:38:04;11.10;1.00
6443;DHT22;3254;47.372;8.512;2022-09-27T14:40:43;11.00;1.00
6443;DHT22;3254;47.372;8.512;2022-09-27T14:43:20;11.00;1.00
6443;DHT22;3254;47.372;8.512;2022-09-27T14:45:51;10.90;1.00
6443;DHT22;3254;47.372;8.512;2022-09-27T14:51:27;10.80;1.00
6443;DHT22;3254;47.372;8.512;2022-09-27T14:53:58;10.80;1.00
6443;DHT22;3254;47.372;8.512;2022-09-27T14:56:34;10.70;1.20
6443;DHT22;3254;47.372;8.512;2022-09-27T14:59:25;10.10;21.90
6443;DHT22;3254;47.372;8.512;2022-09-27T15:02:00;9.70;45.60
6443;DHT22;3254;47.372;8.512;2022-09-27T15:04:30;9.70;57.80
6443;DHT22;3254;47.372;8.512;2022-09-27T15:06:57;9.70;54.80
6443;DHT22;3254;47.372;8.512;2022-09-27T15:09:25;9.80;53.10
6443;DHT22;3254;47.372;8.512;2022-09-27T15:12:03;9.90;47.50
6443;DHT22;3254;47.372;8.512;2022-09-27T15:14:30;9.90;48.50
6443;DHT22;3254;47.372;8.512;2022-09-27T15:16:57;10.00;42.40
6443;DHT22;3254;47.372;8.512;2022-09-27T15:19:31;10.10;45.40
6443;DHT22;3254;47.372;8.512;2022-09-27T15:22:35;10.00;35.60
6443;DHT22;3254;47.372;8.512;2022-09-27T15:27:53;10.00;42.10
6443;DHT22;3254;47.372;8.512;2022-09-27T15:30:40;10.20;40.40
6443;DHT22;3254;47.372;8.512;2022-09-27T15:33:21;10.20;35.90
6443;DHT22;3254;47.372;8.512;2022-09-27T15:35:50;10.20;34.10
6443;DHT22;3254;47.372;8.512;2022-09-27T15:38:40;10.20;34.30
6443;DHT22;3254;47.372;8.512;2022-09-27T15:41:14;10.20;31.70
6443;DHT22;3254;47.372;8.512;2022-09-27T15:43:51;10.10;28.30
6443;DHT22;3254;47.372;8.512;2022-09-27T15:46:42;10.10;35.50
6443;DHT22;3254;47.372;8.512;2022-09-27T15:49:27;10.20;33.40
6443;DHT22;3254;47.372;8.512;2022-09-27T15:51:59;10.10;30.40
6443;DHT22;3254;47.372;8.512;2022-09-27T15:54:30;10.10;27.90
6443;DHT22;3254;47.372;8.512;2022-09-27T15:57:02;10.00;38.00
6443;DHT22;3254;47.372;8.512;2022-09-27T15:59:32;9.80;47.80
6443;DHT22;3254;47.372;8.512;2022-09-27T16:02:13;9.50;64.00
6443;DHT22;3254;47.372;8.512;2022-09-27T16:04:40;9.40;89.10
6443;DHT22;3254;47.372;8.512;2022-09-27T16:07:06;9.30;96.70
6443;DHT22;3254;47.372;8.512;2022-09-27T16:09:34;9.20;99.70
6443;DHT22;3254;47.372;8.512;2022-09-27T16:12:00;9.10;99.90
6443;DHT22;3254;47.372;8.512;2022-09-27T16:14:25;8.90;99.90
6443;DHT22;3254;47.372;8.512;2022-09-27T16:16:54;8.80;99.90
6443;DHT22;3254;47.372;8.512;2022-09-27T16:19:21;8.80;99.90
6443;DHT22;3254;47.372;8.512;2022-09-27T16:21:48;8.70;99.90
6443;DHT22;3254;47.372;8.512;2022-09-27T16:24:14;8.70;99.90
6443;DHT22;3254;47.372;8.512;2022-09-27T16:26:41;8.70;99.90
6443;DHT22;3254;47.372;8.512;2022-09-27T16:29:14;8.50;99.90
6443;DHT22;3254;47.372;8.512;2022-09-27T16:31:40;8.30;99.90
6443;DHT22;3254;47.372;8.512;2022-09-27T16:34:10;8.20;99.90
6443;DHT22;3254;47.372;8.512;2022-09-27T16:36:36;8.10;99.90
6443;DHT22;3254;47.372;8.512;2022-09-27T16:39:05;8.10;99.90
6443;DHT22;3254;47.372;8.512;2022-09-27T16:41:30;8.20;99.90
6443;DHT22;3254;47.372;8.512;2022-09-27T16:43:58;8.20;99.90
6443;DHT22;3254;47.372;8.512;2022-09-27T16:46:23;8.10;99.90
6443;DHT22;3254;47.372;8.512;2022-09-27T16:48:49;8.10;99.90
6443;DHT22;3254;47.372;8.512;2022-09-27T16:51:20;8.10;99.90
6443;DHT22;3254;47.372;8.512;2022-09-27T16:54:05;8.10;99.90
6443;DHT22;3254;47.372;8.512;2022-09-27T16:56:34;8.10;99.90
6443;DHT22;3254;47.372;8.512;2022-09-27T16:59:01;8.10;99.90
6443;DHT22;3254;47.372;8.512;2022-09-27T17:01:29;8.00;99.90
6443;DHT22;3254;47.372;8.512;2022-09-27T17:03:55;8.10;99.90
6443;DHT22;3254;47.372;8.512;2022-09-27T17:06:22;8.10;99.90
6443;DHT22;3254;47.372;8.512;2022-09-27T17:08:48;8.10;99.90
6443;DHT22;3254;47.372;8.512;2022-09-27T17:11:15;8.10;99.90
6443;DHT22;3254;47.372;8.512;2022-09-27T17:13:44;8.10;99.90
6443;DHT22;3254;47.372;8.512;2022-09-27T17:16:12;8.10;99.90
6443;DHT22;3254;47.372;8.512;2022-09-27T17:18:38;8.20;99.90
6443;DHT22;3254;47.372;8.512;2022-09-27T17:21:06;8.20;99.90
6443;DHT22;3254;47.372;8.512;2022-09-27T17:23:34;8.20;99.90
6443;DHT22;3254;47.372;8.512;2022-09-27T17:26:13;8.20;99.90
6443;DHT22;3254;47.372;8.512;2022-09-27T17:28:39;8.30;99.90
6443;DHT22;3254;47.372;8.512;2022-09-27T17:31:10;8.30;99.90
6443;DHT22;3254;47.372;8.512;2022-09-27T17:33:42;8.20;99.90
6443;DHT22;3254;47.372;8.512;2022-09-27T17:36:14;8.30;99.90
6443;DHT22;3254;47.372;8.512;2022-09-27T17:38:40;8.30;99.90
6443;DHT22;3254;47.372;8.512;2022-09-27T17:41:09;8.30;99.90
6443;DHT22;3254;47.372;8.512;2022-09-27T17:43:37;8.30;99.90
6443;DHT22;3254;47.372;8.512;2022-09-27T17:46:05;8.40;99.90
6443;DHT22;3254;47.372;8.512;2022-09-27T17:48:31;8.40;99.90
6443;DHT22;3254;47.372;8.512;2022-09-27T17:51:17;8.40;99.90
6443;DHT22;3254;47.372;8.512;2022-09-27T17:53:43;8.40;99.90
6443;DHT22;3254;47.372;8.512;2022-09-27T17:56:10;8.40;99.90
6443;DHT22;3254;47.372;8.512;2022-09-27T17:58:36;8.40;99.90
6443;DHT22;3254;47.372;8.512;2022-09-27T18:01:05;8.50;99.90
6443;DHT22;3254;47.372;8.512;2022-09-27T18:03:32;8.50;99.90
6443;DHT22;3254;47.372;8.512;2022-09-27T18:06:08;8.40;99.90
6443;DHT22;3254;47.372;8.512;2022-09-27T18:08:35;8.40;99.90
6443;DHT22;3254;47.372;8.512;2022-09-27T18:11:09;8.40;99.90
6443;DHT22;3254;47.372;8.512;2022-09-27T18:13:38;8.40;99.90
6443;DHT22;3254;47.372;8.512;2022-09-27T18:16:13;8.30;99.90
6443;DHT22;3254;47.372;8.512;2022-09-27T18:18:41;8.30;99.90
6443;DHT22;3254;47.372;8.512;2022-09-27T18:21:11;8.30;99.90
6443;DHT22;3254;47.372;8.512;2022-09-27T18:23:43;8.30;99.90
6443;DHT22;3254;47.372;8.512;2022-09-27T18:26:09;8.40;99.90
6443;DHT22;3254;47.372;8.512;2022-09-27T18:28:37;8.40;99.90
6443;DHT22;3254;47.372;8.512;2022-09-27T18:31:05;8.40;99.90
6443;DHT22;3254;47.372;8.512;2022-09-27T18:33:33;8.40;99.90
6443;DHT22;3254;47.372;8.512;2022-09-27T18:36:04;8.40;99.90
6443;DHT22;3254;47.372;8.512;2022-09-27T18:38:30;8.40;99.90
6443;DHT22;3254;47.372;8.512;2022-09-27T18:41:06;8.30;99.90
6443;DHT22;3254;47.372;8.512;2022-09-27T18:43:32;8.30;99.90
6443;DHT22;3254;47.372;8.512;2022-09-27T18:46:02;8.30;99.90
6443;DHT22;3254;47.372;8.512;2022-09-27T18:48:32;8.40;99.90
6443;DHT22;3254;47.372;8.512;2022-09-27T18:50:59;8.40;99.90
6443;DHT22;3254;47.372;8.512;2022-09-27T18:53:29;8.30;99.90
6443;DHT22;3254;47.372;8.512;2022-09-27T18:56:02;8.30;99.90
6443;DHT22;3254;47.372;8.512;2022-09-27T18:58:28;8.40;99.90
6443;DHT22;3254;47.372;8.512;2022-09-27T19:00:58;8.40;99.90
6443;DHT22;3254;47.372;8.512;2022-09-27T19:03:24;8.40;99.90
6443;DHT22;3254;47.372;8.512;2022-09-27T19:05:54;8.40;99.90
6443;DHT22;3254;47.372;8.512;2022-09-27T19:08:20;8.50;99.90
6443;DHT22;3254;47.372;8.512;2022-09-27T19:10:46;8.50;99.90
6443;DHT22;3254;47.372;8.512;2022-09-27T19:13:12;8.50;99.90
6443;DHT22;3254;47.372;8.512;2022-09-27T19:15:37;8.60;99.90
6443;DHT22;3254;47.372;8.512;2022-09-27T19:18:03;8.60;99.90
6443;DHT22;3254;47.372;8.512;2022-09-27T19:20:29;8.60;99.90
6443;DHT22;3254;47.372;8.512;2022-09-27T19:22:56;8.60;99.90
6443;DHT22;3254;47.372;8.512;2022-09-27T19:25:22;8.70;99.90
6443;DHT22;3254;47.372;8.512;2022-09-27T19:27:48;8.80;99.90
6443;DHT22;3254;47.372;8.512;2022-09-27T19:30:14;8.70;99.90
6443;DHT22;3254;47.372;8.512;2022-09-27T19:32:39;8.80;99.90
6443;DHT22;3254;47.372;8.512;2022-09-27T19:35:05;8.70;99.90
6443;DHT22;3254;47.372;8.512;2022-09-27T19:37:31;8.70;99.90
6443;DHT22;3254;47.372;8.512;2022-09-27T19:39:57;8.70;99.90
6443;DHT22;3254;47.372;8.512;2022-09-27T19:42:24;8.50;99.90